PWSweather.com
Personal Weather Stations
Station Observations
SWHWX01
St AppolinardFR 38160

St AppolinardFR 38160

Lat: 45.191, Lon: 5.268

Elevation: 1460

Station Type: Davis Vantage Pro2 Plus

www.sweetwebhome.com/?show=wxindex

High Low Average
Temperature 58.0°F14.4°F 44.7°F7.1°F 50.3°F10.2°F
Dew Point 47.2°F8.4°F 38.7°F3.7°F 42.9°F6.1°F
Winds 11.4 mph -18.3 mph - Calm Calm 3.1 mph 5.0 mph
Wind Gusts 19.0 mph30.6 mph -- 5.8 mph9.3 mph
Humidity 89% 61% 76%
Pressure 30.32 in1026.80 in 30.15 in1021.00 in -
Precipitation 0.00 in0.00 in - -
Hour Temp Dew Point Humidity Winds Wind Gusts Pressure Precip Precip Rate Daily Precip Total
12:00 AM 48.9°F9.4°C 45.2°F7.3°C 87% 0.3 mph N0.5 kmh N 1.0 mph1.6 kmh 30.15 in1021.0 mb - 0.00 in0.0 mm 0.00 in0.0 mm
12:30 AM 48.4°F9.1°C 45.0°F7.2°C 88% 0.1 mph E0.2 kmh E -- 30.16 in1021.3 mb - 0.00 in0.0 mm 0.00 in0.0 mm
01:00 AM 48.8°F9.3°C 45.4°F7.4°C 88% 5.0 mph NNW8.0 kmh NNW 9.0 mph14.5 kmh 30.15 in1021.0 mb - 0.00 in0.0 mm 0.00 in0.0 mm
01:30 AM 48.2°F9.0°C 44.2°F6.8°C 86% 1.2 mph NE1.9 kmh NE 3.0 mph4.8 kmh 30.16 in1021.3 mb - 0.00 in0.0 mm 0.00 in0.0 mm
02:00 AM 47.6°F8.7°C 43.9°F6.6°C 87% 3.8 mph N6.1 kmh N 6.0 mph9.7 kmh 30.15 in1021.0 mb - 0.00 in0.0 mm 0.00 in0.0 mm
02:30 AM 47.6°F8.7°C 43.6°F6.4°C 86% 1.3 mph NNE2.1 kmh NNE 4.0 mph6.4 kmh 30.15 in1021.0 mb - 0.00 in0.0 mm 0.00 in0.0 mm
03:00 AM 47.4°F8.6°C 43.4°F6.3°C 86% 0.9 mph NNW1.4 kmh NNW 3.0 mph4.8 kmh 30.15 in1021.0 mb - 0.00 in0.0 mm 0.00 in0.0 mm
03:30 AM 47.0°F8.3°C 43.0°F6.1°C 86% Calm Calm -- 30.15 in1021.0 mb - 0.00 in0.0 mm 0.00 in0.0 mm
04:00 AM 47.0°F8.3°C 43.0°F6.1°C 86% 1.2 mph NNW1.9 kmh NNW 3.0 mph4.8 kmh 30.16 in1021.3 mb - 0.00 in0.0 mm 0.00 in0.0 mm
04:30 AM 46.8°F8.2°C 42.8°F6.0°C 86% Calm Calm -- 30.16 in1021.3 mb - 0.00 in0.0 mm 0.00 in0.0 mm
05:00 AM 46.2°F7.9°C 42.5°F5.8°C 87% 0.6 mph NNW1.0 kmh NNW 2.0 mph3.2 kmh 30.16 in1021.3 mb - 0.00 in0.0 mm 0.00 in0.0 mm
05:30 AM 45.8°F7.7°C 42.2°F5.7°C 87% Calm Calm -- 30.17 in1021.7 mb - 0.00 in0.0 mm 0.00 in0.0 mm
06:00 AM 45.7°F7.6°C 42.3°F5.7°C 88% Calm Calm -- 30.18 in1022.0 mb - 0.00 in0.0 mm 0.00 in0.0 mm
06:30 AM 45.8°F7.7°C 42.5°F5.8°C 88% 2.9 mph NNE4.7 kmh NNE 8.0 mph12.9 kmh 30.18 in1022.0 mb - 0.00 in0.0 mm 0.00 in0.0 mm
07:00 AM 45.1°F7.3°C 41.8°F5.4°C 88% 1.3 mph N2.1 kmh N 3.0 mph4.8 kmh 30.18 in1022.0 mb - 0.00 in0.0 mm 0.00 in0.0 mm
07:30 AM 44.7°F7.1°C 41.7°F5.4°C 89% Calm Calm -- 30.20 in1022.7 mb - 0.00 in0.0 mm 0.00 in0.0 mm
08:00 AM 45.9°F7.7°C 42.8°F6.0°C 89% 3.3 mph N5.3 kmh N 6.0 mph9.7 kmh 30.21 in1023.0 mb - 0.00 in0.0 mm 0.00 in0.0 mm
08:30 AM 47.2°F8.4°C 43.2°F6.2°C 86% 4.8 mph N7.7 kmh N 6.0 mph9.7 kmh 30.21 in1023.0 mb - 0.00 in0.0 mm 0.00 in0.0 mm
09:00 AM 49.3°F9.6°C 44.4°F6.9°C 83% 1.9 mph NNW3.1 kmh NNW 5.0 mph8.0 kmh 30.22 in1023.4 mb - 0.00 in0.0 mm 0.00 in0.0 mm
09:30 AM 49.0°F9.4°C 43.4°F6.3°C 81% 6.5 mph NW10.5 kmh NW 10.0 mph16.1 kmh 30.23 in1023.7 mb - 0.00 in0.0 mm 0.00 in0.0 mm
10:00 AM 50.2°F10.1°C 43.9°F6.6°C 79% 3.6 mph NNW5.8 kmh NNW 5.0 mph8.0 kmh 30.22 in1023.4 mb - 0.00 in0.0 mm 0.00 in0.0 mm
10:30 AM 51.2°F10.7°C 44.6°F7.0°C 78% 4.9 mph NNW7.9 kmh NNW 8.0 mph12.9 kmh 30.22 in1023.4 mb - 0.00 in0.0 mm 0.00 in0.0 mm
11:00 AM 53.1°F11.7°C 45.7°F7.6°C 76% 2.0 mph SE3.2 kmh SE 4.0 mph6.4 kmh 30.22 in1023.4 mb - 0.00 in0.0 mm 0.00 in0.0 mm
11:30 AM 55.8°F13.2°C 46.2°F7.9°C 70% 1.8 mph NNE2.9 kmh NNE 3.0 mph4.8 kmh 30.22 in1023.4 mb - 0.00 in0.0 mm 0.00 in0.0 mm
12:00 PM 55.3°F12.9°C 46.1°F7.8°C 71% 3.9 mph NNW6.3 kmh NNW 4.0 mph6.4 kmh 30.22 in1023.4 mb - 0.00 in0.0 mm 0.00 in0.0 mm
12:30 PM 55.3°F12.9°C 47.2°F8.4°C 74% 0.8 mph NNW1.3 kmh NNW 1.0 mph1.6 kmh 30.22 in1023.4 mb - 0.00 in0.0 mm 0.00 in0.0 mm
01:00 PM 57.5°F14.2°C 47.0°F8.3°C 68% 3.4 mph N5.5 kmh N 8.0 mph12.9 kmh 30.20 in1022.7 mb - 0.00 in0.0 mm 0.00 in0.0 mm
01:30 PM 57.9°F14.4°C 44.5°F6.9°C 61% 6.6 mph NNE10.6 kmh NNE 12.0 mph19.3 kmh 30.20 in1022.7 mb - 0.00 in0.0 mm 0.00 in0.0 mm
02:00 PM 58.0°F14.4°C 45.0°F7.2°C 62% 1.8 mph NNE2.9 kmh NNE 6.0 mph9.7 kmh 30.20 in1022.7 mb - 0.00 in0.0 mm 0.00 in0.0 mm
02:30 PM 56.7°F13.7°C 44.7°F7.1°C 64% 8.6 mph N13.8 kmh N 14.0 mph22.5 kmh 30.20 in1022.7 mb - 0.00 in0.0 mm 0.00 in0.0 mm
03:00 PM 55.2°F12.9°C 44.8°F7.1°C 68% 9.1 mph NNW14.6 kmh NNW 11.0 mph17.7 kmh 30.21 in1023.0 mb - 0.00 in0.0 mm 0.00 in0.0 mm
03:30 PM 54.5°F12.5°C 42.6°F5.9°C 64% 11.4 mph NNW18.3 kmh NNW 16.0 mph25.7 kmh 30.22 in1023.4 mb - 0.00 in0.0 mm 0.00 in0.0 mm
04:00 PM 53.9°F12.2°C 42.0°F5.6°C 64% 4.5 mph N7.2 kmh N 8.0 mph12.9 kmh 30.22 in1023.4 mb - 0.00 in0.0 mm 0.00 in0.0 mm
04:30 PM 53.8°F12.1°C 42.7°F5.9°C 66% 5.8 mph N9.3 kmh N 19.0 mph30.6 kmh 30.23 in1023.7 mb - 0.00 in0.0 mm 0.00 in0.0 mm
05:00 PM 53.4°F11.9°C 42.7°F5.9°C 67% 2.7 mph NE4.3 kmh NE 11.0 mph17.7 kmh 30.23 in1023.7 mb - 0.00 in0.0 mm 0.00 in0.0 mm
05:30 PM 52.4°F11.3°C 42.9°F6.1°C 70% 2.2 mph NE3.5 kmh NE 7.0 mph11.3 kmh 30.25 in1024.4 mb - 0.00 in0.0 mm 0.00 in0.0 mm
06:00 PM 51.0°F10.6°C 42.3°F5.7°C 72% 1.3 mph NE2.1 kmh NE 2.0 mph3.2 kmh 30.26 in1024.7 mb - 0.00 in0.0 mm 0.00 in0.0 mm
06:30 PM 49.6°F9.8°C 42.0°F5.6°C 75% 4.1 mph NE6.6 kmh NE 5.0 mph8.0 kmh 30.27 in1025.1 mb - 0.00 in0.0 mm 0.00 in0.0 mm
07:00 PM 49.0°F9.4°C 41.7°F5.4°C 76% 1.7 mph N2.7 kmh N 5.0 mph8.0 kmh 30.27 in1025.1 mb - 0.00 in0.0 mm 0.00 in0.0 mm
07:30 PM 49.4°F9.7°C 41.5°F5.3°C 74% 0.8 mph N1.3 kmh N 1.0 mph1.6 kmh 30.28 in1025.4 mb - 0.00 in0.0 mm 0.00 in0.0 mm
08:00 PM 50.5°F10.3°C 40.3°F4.6°C 68% 3.7 mph NNW6.0 kmh NNW 10.0 mph16.1 kmh 30.28 in1025.4 mb - 0.00 in0.0 mm 0.00 in0.0 mm
08:30 PM 50.1°F10.1°C 39.6°F4.2°C 67% 0.8 mph NNW1.3 kmh NNW 3.0 mph4.8 kmh 30.29 in1025.7 mb - 0.00 in0.0 mm 0.00 in0.0 mm
09:00 PM 50.1°F10.1°C 39.6°F4.2°C 67% 3.7 mph N6.0 kmh N 6.0 mph9.7 kmh 30.30 in1026.1 mb - 0.00 in0.0 mm 0.00 in0.0 mm
09:30 PM 50.5°F10.3°C 39.1°F3.9°C 65% 2.1 mph NNW3.4 kmh NNW 4.0 mph6.4 kmh 30.31 in1026.4 mb - 0.00 in0.0 mm 0.00 in0.0 mm
10:00 PM 49.2°F9.6°C 38.7°F3.7°C 67% 6.2 mph NNW10.0 kmh NNW 12.0 mph19.3 kmh 30.31 in1026.4 mb - 0.00 in0.0 mm 0.00 in0.0 mm
10:30 PM 49.4°F9.7°C 38.9°F3.8°C 67% 5.6 mph NNW9.0 kmh NNW 7.0 mph11.3 kmh 30.31 in1026.4 mb - 0.00 in0.0 mm 0.00 in0.0 mm
11:00 PM 49.3°F9.6°C 39.2°F4.0°C 68% 4.8 mph NNW7.7 kmh NNW 8.0 mph12.9 kmh 30.31 in1026.4 mb - 0.00 in0.0 mm 0.00 in0.0 mm
11:30 PM 48.2°F9.0°C 38.9°F3.8°C 70% 5.5 mph NNW8.9 kmh NNW 7.0 mph11.3 kmh 30.32 in1026.8 mb - 0.00 in0.0 mm 0.00 in0.0 mm